Time;durP1;ratioP1;P1;durP2;ratioP2;P2;SDS_P1;SDS_P2;PMS_P1;PMS_P2;Temp;Humidity;BMP_temperature;BMP_pressure;BME280_temperature;BME280_humidity;BME280_pressure;Samples;Min_cycle;Max_cycle;Signal;HPM_P1;HPM_P2
2023/10/26 00:00:55;;;;;;;27.08;13.88;;;;;;;9.66;100.00;99543.44;5025520;28;20049;-71
2023/10/26 00:03:20;;;;;;;22.88;13.48;;;;;;;9.66;100.00;99543.44;5026459;28;20061;-71
2023/10/26 00:05:47;;;;;;;24.92;13.55;;;;;;;9.66;100.00;99548.03;5025153;28;20072;-72
2023/10/26 00:08:12;;;;;;;24.30;14.88;;;;;;;9.66;100.00;99551.59;5023928;28;20042;-70
2023/10/26 00:10:39;;;;;;;23.38;13.98;;;;;;;9.64;100.00;99559.00;5025965;28;20115;-71
2023/10/26 00:13:05;;;;;;;24.45;14.05;;;;;;;9.64;100.00;99563.56;5025796;28;20116;-71
2023/10/26 00:15:30;;;;;;;22.88;13.70;;;;;;;9.64;100.00;99563.56;5025602;28;20108;-70
2023/10/26 00:17:56;;;;;;;21.15;14.15;;;;;;;9.64;100.00;99569.88;5026047;28;20048;-69
2023/10/26 00:20:21;;;;;;;22.67;13.15;;;;;;;9.65;100.00;99573.44;5007470;28;20030;-74
2023/10/26 00:22:46;;;;;;;24.58;13.43;;;;;;;9.64;100.00;99579.88;5007485;28;20042;-70
2023/10/26 00:25:12;;;;;;;22.20;13.32;;;;;;;9.62;100.00;99576.44;5024590;28;20040;-70
2023/10/26 00:27:40;;;;;;;18.55;12.07;;;;;;;9.60;100.00;99573.00;5025698;28;20052;-70
2023/10/26 00:30:09;;;;;;;20.17;13.00;;;;;;;9.56;100.00;99579.69;5025386;28;20497;-71
2023/10/26 00:32:36;;;;;;;17.92;11.07;;;;;;;9.51;100.00;99588.22;5025947;28;20033;-72
2023/10/26 00:35:03;;;;;;;22.05;11.32;;;;;;;9.47;100.00;99588.66;5009712;28;20106;-72
2023/10/26 00:37:29;;;;;;;15.77;10.52;;;;;;;9.44;100.00;99587.94;5028817;28;20079;-70
2023/10/26 00:39:55;;;;;;;19.75;10.65;;;;;;;9.45;100.00;99591.50;5029683;28;20036;-72
2023/10/26 00:42:20;;;;;;;17.73;11.02;;;;;;;9.44;100.00;99593.34;5029980;28;20045;-69
2023/10/26 00:44:46;;;;;;;16.10;10.35;;;;;;;9.42;100.00;99600.78;5030392;28;20489;-70
2023/10/26 00:47:13;;;;;;;19.40;10.75;;;;;;;9.40;100.00;99596.47;5030708;28;20481;-69
2023/10/26 00:49:42;;;;;;;17.13;10.48;;;;;;;9.37;100.00;99597.63;5030217;28;20132;-70
2023/10/26 00:52:09;;;;;;;18.02;11.10;;;;;;;9.38;100.00;99596.63;5024942;28;20175;-70
2023/10/26 00:54:35;;;;;;;19.17;10.05;;;;;;;9.41;100.00;99603.63;5022206;28;20053;-70
2023/10/26 00:57:02;;;;;;;17.17;11.32;;;;;;;9.40;100.00;99605.47;5009505;28;20490;-70
2023/10/26 00:59:29;;;;;;;16.92;11.05;;;;;;;9.43;100.00;99612.50;5013276;28;20637;-70
2023/10/26 01:01:55;;;;;;;17.23;11.05;;;;;;;9.44;100.00;99608.78;5011336;28;20050;-69
2023/10/26 01:04:21;;;;;;;18.90;11.70;;;;;;;9.44;100.00;99606.94;5012683;28;20037;-70
2023/10/26 01:06:46;;;;;;;20.05;11.32;;;;;;;9.44;100.00;99606.94;5022793;28;20049;-69
2023/10/26 01:09:14;;;;;;;20.08;11.57;;;;;;;9.44;100.00;99604.22;5028774;28;20124;-69
2023/10/26 01:11:41;;;;;;;19.73;11.98;;;;;;;9.42;100.00;99610.78;5030427;28;20512;-69
2023/10/26 01:14:07;;;;;;;21.42;12.60;;;;;;;9.41;100.00;99612.63;5012717;28;20033;-69
2023/10/26 01:16:33;;;;;;;20.15;12.65;;;;;;;9.39;100.00;99614.63;5029787;28;20037;-69
2023/10/26 01:18:59;;;;;;;22.67;12.70;;;;;;;9.38;100.00;99612.91;5029718;28;20446;-69
2023/10/26 01:21:25;;;;;;;23.55;13.90;;;;;;;9.36;100.00;99609.44;5029180;28;20496;-70
2023/10/26 01:23:50;;;;;;;24.27;12.65;;;;;;;9.34;100.00;99607.88;5029131;28;20030;-69
2023/10/26 01:26:16;;;;;;;20.20;12.63;;;;;;;9.31;100.00;99616.28;5016205;28;20065;-70
2023/10/26 01:28:41;;;;;;;23.20;12.98;;;;;;;9.24;100.00;99613.25;5010333;28;20120;-70
2023/10/26 01:31:06;;;;;;;21.92;12.68;;;;;;;9.21;100.00;99610.78;5019959;28;20040;-70
2023/10/26 01:33:32;;;;;;;20.27;12.43;;;;;;;9.18;100.00;99609.19;5028211;28;20037;-69
2023/10/26 01:35:57;;;;;;;19.73;11.75;;;;;;;9.16;100.00;99613.03;5028497;28;20033;-69
2023/10/26 01:38:22;;;;;;;20.52;11.57;;;;;;;9.06;100.00;99610.28;5027713;28;20044;-70
2023/10/26 01:40:49;;;;;;;21.63;12.45;;;;;;;9.02;100.00;99611.53;5029263;28;20035;-69
2023/10/26 01:43:15;;;;;;;18.63;11.52;;;;;;;8.98;100.00;99604.63;5029798;28;20082;-70
2023/10/26 01:45:40;;;;;;;23.20;11.40;;;;;;;8.93;100.00;99609.59;5022310;28;20045;-70
2023/10/26 01:48:05;;;;;;;20.25;10.70;;;;;;;8.86;100.00;99606.56;5008548;28;20406;-70
2023/10/26 01:50:31;;;;;;;20.58;11.25;;;;;;;8.82;100.00;99606.94;5009268;28;20112;-70
2023/10/26 01:52:57;;;;;;;21.15;12.35;;;;;;;8.77;100.00;99611.91;5007786;28;20030;-70
2023/10/26 01:55:23;;;;;;;18.90;10.85;;;;;;;8.70;100.00;99611.53;5008585;28;20041;-70
2023/10/26 01:57:48;;;;;;;21.60;12.35;;;;;;;8.67;100.00;99614.50;5010362;28;20393;-70
2023/10/26 02:00:14;;;;;;;19.05;11.07;;;;;;;8.62;100.00;99619.47;5007852;28;20026;-69
2023/10/26 02:02:41;;;;;;;22.80;11.82;;;;;;;8.55;100.00;99612.84;5024811;28;20031;-71
2023/10/26 02:05:07;;;;;;;18.55;11.48;;;;;;;8.48;100.00;99617.91;5012272;28;20037;-70
2023/10/26 02:07:33;;;;;;;22.98;12.45;;;;;;;8.43;100.00;99609.28;5027204;28;20049;-70
2023/10/26 02:09:59;;;;;;;22.75;12.65;;;;;;;8.38;100.00;99604.25;5011480;28;20084;-69
2023/10/26 02:12:25;;;;;;;19.70;10.43;;;;;;;8.31;100.00;99605.75;5021056;28;20461;-69
2023/10/26 02:14:50;;;;;;;25.58;9.45;;;;;;;8.24;100.00;99606.38;4993125;28;20479;-69
2023/10/26 02:17:16;;;;;;;27.10;9.82;;;;;;;8.16;100.00;99602.47;5008244;28;20061;-70
2023/10/26 02:19:41;;;;;;;17.67;11.13;;;;;;;8.13;100.00;99604.56;5007358;28;20044;-70
2023/10/26 02:22:07;;;;;;;16.33;10.25;;;;;;;8.09;100.00;99606.66;5019286;28;20041;-70
2023/10/26 02:24:32;;;;;;;18.70;10.10;;;;;;;8.06;100.00;99604.19;5029171;28;20104;-69
2023/10/26 02:26:57;;;;;;;22.70;12.05;;;;;;;8.05;100.00;99598.91;5011338;28;20037;-70
2023/10/26 02:29:23;;;;;;;18.80;10.85;;;;;;;8.03;100.00;99598.19;5027311;28;20022;-72
2023/10/26 02:31:50;;;;;;;20.80;11.20;;;;;;;8.03;100.00;99592.75;5009446;28;20045;-69
2023/10/26 02:34:15;;;;;;;35.92;11.57;;;;;;;8.01;100.00;99601.00;5027260;28;20049;-69
2023/10/26 02:36:41;;;;;;;16.92;9.38;;;;;;;7.98;100.00;99595.00;5026826;28;20380;-69
2023/10/26 02:39:06;;;;;;;19.58;9.73;;;;;;;7.91;100.00;99589.19;5016393;28;20246;-71
2023/10/26 02:41:31;;;;;;;20.27;10.13;;;;;;;7.87;100.00;99585.00;5010864;28;20045;-73
2023/10/26 02:43:57;;;;;;;17.92;10.18;;;;;;;7.87;100.00;99587.72;5027203;28;20075;-69
2023/10/26 02:46:23;;;;;;;18.75;10.60;;;;;;;7.88;100.00;99592.13;5014496;28;20124;-71
2023/10/26 02:48:49;;;;;;;15.95;9.68;;;;;;;7.82;100.00;99592.66;5021134;28;20489;-70
2023/10/26 02:51:14;;;;;;;23.77;10.52;;;;;;;7.80;100.00;99603.63;5027366;28;20048;-70
2023/10/26 02:53:40;;;;;;;18.48;10.88;;;;;;;7.76;100.00;99593.16;5028516;28;20479;-69
2023/10/26 02:56:06;;;;;;;16.00;9.63;;;;;;;7.72;100.00;99594.38;5027150;28;20025;-69
2023/10/26 02:58:31;;;;;;;16.38;9.98;;;;;;;7.69;100.00;99600.88;5028468;28;20037;-70
2023/10/26 03:00:56;;;;;;;19.98;10.60;;;;;;;7.71;100.00;99598.09;5026960;28;20037;-70
2023/10/26 03:03:22;;;;;;;19.23;10.05;;;;;;;7.64;100.00;99600.41;5026944;28;20047;-71
2023/10/26 03:05:47;;;;;;;17.65;10.35;;;;;;;7.59;100.00;99592.66;5028256;28;20080;-70
2023/10/26 03:08:13;;;;;;;16.45;10.52;;;;;;;7.54;100.00;99599.41;5027798;28;20041;-70
2023/10/26 03:10:38;;;;;;;14.20;8.63;;;;;;;7.51;100.00;99594.28;5023476;28;20041;-69
2023/10/26 03:13:05;;;;;;;15.55;8.65;;;;;;;7.49;100.00;99590.81;5014944;28;20405;-70
2023/10/26 03:15:31;;;;;;;12.95;8.38;;;;;;;7.46;100.00;99597.34;5007501;28;20033;-70
2023/10/26 03:17:57;;;;;;;18.42;8.55;;;;;;;7.41;100.00;99600.41;5008163;28;20477;-70
2023/10/26 03:20:23;;;;;;;17.23;8.88;;;;;;;7.39;100.00;99601.50;5013822;28;20045;-70
2023/10/26 03:22:48;;;;;;;14.15;8.75;;;;;;;7.33;100.00;99597.47;5012352;28;20481;-69
2023/10/26 03:25:15;;;;;;;16.15;9.73;;;;;;;7.31;100.00;99599.41;5010523;28;20374;-69
2023/10/26 03:27:41;;;;;;;16.08;9.13;;;;;;;7.28;100.00;99601.50;5010617;28;20501;-69
2023/10/26 03:30:09;;;;;;;17.70;9.00;;;;;;;7.22;100.00;99597.41;5025867;28;20122;-73
2023/10/26 03:32:35;;;;;;;15.30;8.00;;;;;;;7.19;100.00;99600.38;5027937;28;20045;-73
2023/10/26 03:35:01;;;;;;;14.60;7.80;;;;;;;7.14;100.00;99597.19;5025769;28;20021;-71
2023/10/26 03:37:27;;;;;;;12.15;7.75;;;;;;;7.12;100.00;99600.00;5027141;28;20026;-70
2023/10/26 03:39:52;;;;;;;16.98;9.07;;;;;;;7.10;100.00;99598.41;5006268;28;20018;-70
2023/10/26 03:42:18;;;;;;;11.98;7.22;;;;;;;7.09;100.00;99593.97;5007295;28;20034;-69
2023/10/26 03:44:43;;;;;;;14.95;8.63;;;;;;;7.07;100.00;99585.13;5009535;28;20160;-69
2023/10/26 03:47:09;;;;;;;11.85;7.20;;;;;;;7.04;100.00;99590.75;5015639;28;20068;-70
2023/10/26 03:49:34;;;;;;;10.70;6.13;;;;;;;7.01;100.00;99582.91;5017564;28;20433;-69
2023/10/26 03:52:01;;;;;;;14.38;7.85;;;;;;;7.00;100.00;99584.75;5015415;28;20048;-70
2023/10/26 03:54:26;;;;;;;13.35;7.13;;;;;;;7.03;100.00;99581.78;5027631;28;20092;-70
2023/10/26 03:56:51;;;;;;;14.10;8.10;;;;;;;7.09;100.00;99583.16;5014517;28;20085;-73
2023/10/26 03:59:17;;;;;;;13.93;8.15;;;;;;;7.12;100.00;99566.69;5008519;28;20041;-70
2023/10/26 04:01:42;;;;;;;18.13;8.18;;;;;;;7.10;100.00;99566.81;5013834;28;20030;-70
2023/10/26 04:04:08;;;;;;;30.98;10.80;;;;;;;7.12;100.00;99559.41;5026782;28;20078;-70
2023/10/26 04:06:33;;;;;;;21.95;10.70;;;;;;;7.18;100.00;99558.09;5025926;28;20142;-70
2023/10/26 04:08:58;;;;;;;22.02;10.10;;;;;;;7.23;100.00;99568.53;5027529;28;20033;-70
2023/10/26 04:11:24;;;;;;;34.65;11.07;;;;;;;7.27;100.00;99567.31;5030918;28;20073;-71
2023/10/26 04:13:51;;;;;;;20.33;10.50;;;;;;;7.32;100.00;99562.38;5030812;28;20120;-70
2023/10/26 04:16:16;;;;;;;38.92;10.75;;;;;;;7.37;100.00;99561.06;5018285;28;20042;-71
2023/10/26 04:18:43;;;;;;;73.55;13.75;;;;;;;7.42;100.00;99560.69;5017923;28;20047;-69
2023/10/26 04:21:08;;;;;;;21.83;10.98;;;;;;;7.47;100.00;99566.59;5030167;28;20038;-71
2023/10/26 04:23:33;;;;;;;77.72;12.90;;;;;;;7.51;100.00;99562.66;5031305;28;20036;-70
2023/10/26 04:25:59;;;;;;;46.90;12.52;;;;;;;7.53;100.00;99570.66;5031639;28;20033;-70
2023/10/26 04:28:24;;;;;;;63.85;13.43;;;;;;;7.54;100.00;99567.81;5029643;28;20037;-70
2023/10/26 04:30:49;;;;;;;66.00;13.35;;;;;;;7.53;100.00;99565.22;5031144;28;20026;-73
2023/10/26 04:33:15;;;;;;;32.03;11.50;;;;;;;7.56;100.00;99570.41;5030873;28;20033;-70
2023/10/26 04:35:43;;;;;;;35.97;11.05;;;;;;;7.57;100.00;99574.84;5029189;28;20136;-69
2023/10/26 04:38:09;;;;;;;41.75;12.32;;;;;;;7.54;100.00;99558.81;5030299;28;20398;-70
2023/10/26 04:40:35;;;;;;;33.30;11.23;;;;;;;7.57;100.00;99561.31;5030979;28;20061;-70
2023/10/26 04:43:02;;;;;;;36.65;12.05;;;;;;;7.58;100.00;99563.00;5028647;28;20028;-70
2023/10/26 04:45:27;;;;;;;20.17;11.02;;;;;;;7.55;100.00;99561.41;5016175;28;20037;-70
2023/10/26 04:47:52;;;;;;;32.45;11.02;;;;;;;7.57;100.00;99564.00;5030477;28;20048;-71
2023/10/26 04:50:18;;;;;;;26.73;10.32;;;;;;;7.53;100.00;99562.53;5028395;28;20481;-70
2023/10/26 04:52:43;;;;;;;36.58;10.50;;;;;;;7.50;100.00;99552.78;5028496;28;20529;-70
2023/10/26 04:55:08;;;;;;;34.60;10.20;;;;;;;7.46;100.00;99555.88;5031132;28;20484;-70
2023/10/26 04:57:34;;;;;;;21.13;9.93;;;;;;;7.43;100.00;99548.88;5028512;28;20057;-70
2023/10/26 04:59:59;;;;;;;20.77;9.20;;;;;;;7.40;100.00;99563.50;5011370;28;20022;-71
2023/10/26 05:02:25;;;;;;;15.73;9.20;;;;;;;7.42;100.00;99563.41;5010707;28;20128;-73
2023/10/26 05:04:50;;;;;;;21.23;10.25;;;;;;;7.40;100.00;99549.13;5009469;28;20446;-70
2023/10/26 05:07:16;;;;;;;25.70;9.73;;;;;;;7.36;100.00;99553.91;5009852;28;20565;-70
2023/10/26 05:09:41;;;;;;;28.15;9.18;;;;;;;7.35;100.00;99565.72;5024441;28;20456;-69
2023/10/26 05:12:07;;;;;;;49.53;10.38;;;;;;;7.32;100.00;99562.38;5028988;28;20112;-70
2023/10/26 05:14:32;;;;;;;37.22;10.35;;;;;;;7.31;100.00;99553.41;5029369;28;20095;-71
2023/10/26 05:16:57;;;;;;;22.77;8.65;;;;;;;7.29;100.00;99560.81;5028752;28;20461;-71
2023/10/26 05:19:23;;;;;;;45.53;9.75;;;;;;;7.27;100.00;99556.47;5025043;28;20045;-71
2023/10/26 05:21:48;;;;;;;43.63;9.65;;;;;;;7.27;100.00;99556.47;5010308;28;20045;-69
2023/10/26 05:24:13;;;;;;;21.75;9.05;;;;;;;7.28;100.00;99550.97;5017859;28;20053;-71
2023/10/26 05:26:39;;;;;;;43.85;10.25;;;;;;;7.28;100.00;99552.81;5010461;28;20481;-71
2023/10/26 05:29:04;;;;;;;30.30;9.48;;;;;;;7.24;100.00;99552.19;5009433;28;20469;-71
2023/10/26 05:31:30;;;;;;;35.45;10.35;;;;;;;7.27;100.00;99554.63;5014875;28;20038;-70
2023/10/26 05:33:55;;;;;;;22.02;9.35;;;;;;;7.28;100.00;99544.72;5022894;28;20033;-70
2023/10/26 05:36:20;;;;;;;34.83;9.82;;;;;;;7.27;100.00;99551.06;5029610;28;20503;-73
2023/10/26 05:38:46;;;;;;;29.80;11.15;;;;;;;7.29;100.00;99555.41;4993096;28;20041;-70
2023/10/26 05:41:11;;;;;;;28.90;9.90;;;;;;;7.28;100.00;99537.44;5008954;28;20037;-70
2023/10/26 05:43:37;;;;;;;32.85;10.02;;;;;;;7.29;100.00;99538.31;5010732;28;20034;-71
2023/10/26 05:46:04;;;;;;;46.65;10.32;;;;;;;7.31;100.00;99549.84;5010669;28;20076;-71
2023/10/26 05:48:33;;;;;;;38.22;10.40;;;;;;;7.30;100.00;99550.84;5009526;28;20033;-70
2023/10/26 05:50:59;;;;;;;56.53;11.02;;;;;;;7.30;100.00;99551.69;5008431;28;20074;-71
2023/10/26 05:53:24;;;;;;;65.95;10.07;;;;;;;7.29;100.00;99551.84;5008007;28;20468;-70
2023/10/26 05:55:57;;;;;;;50.40;12.63;;;;;;;7.30;100.00;99543.59;5022649;28;20036;-70
2023/10/26 05:58:23;;;;;;;44.15;10.57;;;;;;;7.31;100.00;99544.44;5009611;28;20061;-73
2023/10/26 06:00:48;;;;;;;65.32;11.85;;;;;;;7.30;100.00;99534.59;5016484;28;20488;-70
2023/10/26 06:03:13;;;;;;;86.00;11.95;;;;;;;7.29;100.00;99527.47;5028102;28;20095;-70
2023/10/26 06:05:39;;;;;;;69.78;11.35;;;;;;;7.29;100.00;99525.63;5027445;28;20123;-71
2023/10/26 06:08:04;;;;;;;46.33;11.68;;;;;;;7.28;100.00;99525.78;5028859;28;20064;-70
2023/10/26 06:10:30;;;;;;;37.70;11.38;;;;;;;7.27;100.00;99524.88;5029292;28;20021;-72
2023/10/26 06:12:55;;;;;;;51.60;13.90;;;;;;;7.29;100.00;99528.34;5027926;28;20125;-70
2023/10/26 06:15:21;;;;;;;28.33;10.45;;;;;;;7.31;100.00;99530.91;5029601;28;20446;-71
2023/10/26 06:17:46;;;;;;;24.15;10.35;;;;;;;7.29;100.00;99531.03;5028134;28;20104;-70
2023/10/26 06:20:12;;;;;;;29.92;10.18;;;;;;;7.30;100.00;99526.50;5028003;28;20041;-70
2023/10/26 06:22:37;;;;;;;31.67;9.65;;;;;;;7.35;100.00;99535.09;5028626;28;20504;-70
2023/10/26 06:25:05;;;;;;;29.10;9.82;;;;;;;7.37;100.00;99538.56;5028761;28;20144;-71
2023/10/26 06:27:31;;;;;;;60.85;10.98;;;;;;;7.37;100.00;99542.13;5029201;28;20038;-70
2023/10/26 06:29:57;;;;;;;27.17;10.02;;;;;;;7.36;100.00;99529.56;5026345;28;20022;-73
2023/10/26 06:32:22;;;;;;;93.75;11.35;;;;;;;7.33;100.00;99531.66;5007783;28;20509;-70
2023/10/26 06:34:48;;;;;;;45.90;11.02;;;;;;;7.31;100.00;99526.34;5018868;28;20034;-70
2023/10/26 06:37:13;;;;;;;70.25;11.77;;;;;;;7.30;100.00;99523.78;5008452;28;20042;-70
2023/10/26 06:39:39;;;;;;;29.95;9.63;;;;;;;7.33;100.00;99535.22;5008835;28;20034;-70
2023/10/26 06:42:04;;;;;;;47.10;10.02;;;;;;;7.34;100.00;99536.94;5009758;28;20028;-70
2023/10/26 06:44:30;;;;;;;46.85;10.82;;;;;;;7.37;100.00;99533.16;5008797;28;20042;-70
2023/10/26 06:46:55;;;;;;;68.43;10.82;;;;;;;7.38;100.00;99541.13;5009362;28;20032;-71
2023/10/26 06:49:20;;;;;;;29.33;9.52;;;;;;;7.40;100.00;99543.69;5007778;28;20041;-71
2023/10/26 06:51:48;;;;;;;17.70;9.50;;;;;;;7.42;100.00;99549.88;5008061;28;20057;-69
2023/10/26 06:54:15;;;;;;;75.50;11.80;;;;;;;7.46;100.00;99550.47;5020902;28;20477;-70
2023/10/26 06:56:41;;;;;;;47.03;10.63;;;;;;;7.47;100.00;99535.97;5010629;28;20400;-71
2023/10/26 06:59:06;;;;;;;58.20;10.05;;;;;;;7.43;100.00;99532.66;5014056;28;20029;-70
2023/10/26 07:01:33;;;;;;;21.73;8.18;;;;;;;7.43;100.00;99538.06;5014726;28;20549;-72
2023/10/26 07:03:59;;;;;;;67.72;10.43;;;;;;;7.40;100.00;99536.44;5011270;28;20041;-71
2023/10/26 07:06:25;;;;;;;61.78;10.02;;;;;;;7.41;100.00;99545.41;5027129;28;20111;-70
2023/10/26 07:08:50;;;;;;;28.05;8.52;;;;;;;7.44;100.00;99545.19;5028990;28;20037;-70
2023/10/26 07:11:15;;;;;;;51.88;9.15;;;;;;;7.40;100.00;99535.59;5028326;28;20130;-69
2023/10/26 07:13:42;;;;;;;115.38;12.80;;;;;;;7.40;100.00;99547.25;5020344;28;20502;-69
2023/10/26 07:16:08;;;;;;;58.88;9.77;;;;;;;7.37;100.00;99536.72;5006849;28;20052;-71
2023/10/26 07:18:34;;;;;;;43.78;9.32;;;;;;;7.39;100.00;99523.91;5022911;28;20033;-71
2023/10/26 07:21:04;;;;;;;47.78;8.25;;;;;;;7.47;100.00;99525.16;5008146;28;20067;-69
2023/10/26 07:23:29;;;;;;;52.63;9.75;;;;;;;7.51;100.00;99524.78;5014414;28;20481;-70
2023/10/26 07:25:54;;;;;;;33.67;9.30;;;;;;;7.53;100.00;99525.50;5028301;28;20033;-70
2023/10/26 07:28:20;;;;;;;24.83;8.85;;;;;;;7.56;100.00;99519.84;5027329;28;20040;-71
2023/10/26 07:30:50;;;;;;;28.23;8.55;;;;;;;7.65;100.00;99526.38;5026200;28;20030;-71
2023/10/26 07:33:16;;;;;;;37.55;8.43;;;;;;;7.70;100.00;99517.88;5028465;28;20055;-70
2023/10/26 07:35:48;;;;;;;35.22;9.35;;;;;;;7.75;100.00;99523.75;5027481;28;20501;-70
2023/10/26 07:38:13;;;;;;;30.23;9.13;;;;;;;7.82;100.00;99531.22;5027201;28;20147;-69
2023/10/26 07:40:47;;;;;;;28.00;10.07;;;;;;;7.88;100.00;99532.56;5027858;28;20125;-73
2023/10/26 07:43:13;;;;;;;21.83;8.60;;;;;;;7.93;100.00;99522.25;5027839;28;20310;-69
2023/10/26 07:45:38;;;;;;;42.10;10.90;;;;;;;7.98;100.00;99530.84;5026796;28;20069;-72
2023/10/26 07:48:04;;;;;;;37.30;9.73;;;;;;;7.99;100.00;99529.84;5027822;28;20044;-69
2023/10/26 07:50:29;;;;;;;54.13;10.82;;;;;;;8.01;100.00;99532.41;5027057;28;20046;-70
2023/10/26 07:52:54;;;;;;;32.80;11.00;;;;;;;8.04;100.00;99538.44;5013521;28;20029;-72
2023/10/26 07:55:20;;;;;;;31.05;9.32;;;;;;;8.13;100.00;99548.53;5008699;28;20048;-71
2023/10/26 07:57:45;;;;;;;50.65;10.48;;;;;;;8.20;100.00;99557.00;5009790;28;20021;-71
2023/10/26 08:00:11;;;;;;;41.65;9.90;;;;;;;8.23;100.00;99550.47;5027207;28;20060;-70
2023/10/26 08:02:40;;;;;;;50.08;10.90;;;;;;;8.28;100.00;99548.22;5026514;28;20049;-70
2023/10/26 08:05:06;;;;;;;53.97;13.32;;;;;;;8.31;100.00;99556.13;5025517;28;20481;-71
2023/10/26 08:07:32;;;;;;;75.97;14.55;;;;;;;8.34;100.00;99558.53;5025591;28;20045;-70
2023/10/26 08:09:57;;;;;;;34.83;11.27;;;;;;;8.39;100.00;99564.47;5027494;28;20044;-70
2023/10/26 08:12:23;;;;;;;28.80;11.77;;;;;;;8.45;100.00;99557.69;5027693;28;20041;-70
2023/10/26 08:14:51;;;;;;;26.80;11.30;;;;;;;8.48;100.00;99562.84;5028128;28;20072;-71
2023/10/26 08:17:17;;;;;;;31.10;11.93;;;;;;;8.53;100.00;99569.59;5027475;28;20392;-70
2023/10/26 08:19:42;;;;;;;36.05;11.20;;;;;;;8.56;100.00;99566.63;5026774;28;20100;-70
2023/10/26 08:22:09;;;;;;;31.58;11.50;;;;;;;8.60;100.00;99567.22;5010850;28;20409;-71
2023/10/26 08:24:34;;;;;;;26.45;11.18;;;;;;;8.63;100.00;99567.84;5020308;28;20540;-70
2023/10/26 08:27:00;;;;;;;34.35;11.27;;;;;;;8.67;100.00;99574.72;5021599;28;20038;-70
2023/10/26 08:29:26;;;;;;;59.72;15.23;;;;;;;8.68;100.00;99576.44;5007200;28;20037;-70
2023/10/26 08:31:51;;;;;;;33.50;12.82;;;;;;;8.71;100.00;99575.31;5008282;28;20038;-73
2023/10/26 08:34:17;;;;;;;35.13;14.63;;;;;;;8.72;100.00;99566.19;5007821;28;20037;-70
2023/10/26 08:36:42;;;;;;;31.02;13.15;;;;;;;8.73;100.00;99567.06;5006815;28;20393;-70
2023/10/26 08:39:07;;;;;;;37.88;14.48;;;;;;;8.70;100.00;99568.16;5007687;28;20395;-70
2023/10/26 08:41:33;;;;;;;34.80;11.48;;;;;;;8.68;100.00;99570.16;5007611;28;20073;-70
2023/10/26 08:44:00;;;;;;;43.67;15.77;;;;;;;8.65;100.00;99576.69;5006061;28;20725;-71
2023/10/26 08:46:26;;;;;;;54.58;15.43;;;;;;;8.62;100.00;99578.78;5018978;28;20412;-69
2023/10/26 08:48:55;;;;;;;39.88;14.82;;;;;;;8.64;100.00;99569.56;5027173;28;20025;-72
2023/10/26 08:51:21;;;;;;;33.25;15.45;;;;;;;8.70;100.00;99568.16;5026614;28;20584;-71
2023/10/26 08:53:47;;;;;;;34.33;14.38;;;;;;;8.76;100.00;99564.91;5027330;28;20035;-70
2023/10/26 08:56:15;;;;;;;35.75;12.23;;;;;;;8.84;100.00;99565.13;5028510;28;20077;-70
2023/10/26 08:58:41;;;;;;;25.88;10.13;;;;;;;8.97;100.00;99569.50;5030331;28;20061;-70
2023/10/26 09:01:07;;;;;;;19.98;9.82;;;;;;;9.06;100.00;99566.00;5020932;28;20096;-70
2023/10/26 09:03:34;;;;;;;28.63;10.50;;;;;;;9.12;100.00;99566.31;5010592;28;20034;-70
2023/10/26 09:06:00;;;;;;;41.28;9.68;;;;;;;9.09;100.00;99566.59;5010585;28;20096;-69
2023/10/26 09:08:28;;;;;;;31.27;9.18;;;;;;;9.05;100.00;99565.16;5008850;28;20069;-72
2023/10/26 09:10:54;;;;;;;31.27;10.15;;;;;;;9.06;100.00;99553.28;5029490;28;20073;-70
2023/10/26 09:13:27;;;;;;;23.88;9.60;;;;;;;9.18;100.00;99562.19;5030676;28;20079;-70
2023/10/26 09:15:55;;;;;;;21.23;9.32;;;;;;;9.29;100.00;99569.44;5017758;28;20124;-70
2023/10/26 09:18:21;;;;;;;23.58;10.63;;;;;;;9.31;100.00;99570.13;5027317;28;20508;-70
2023/10/26 09:21:07;;;;;;;20.33;9.20;;;;;;;9.34;100.00;99565.31;5010661;28;20038;-70
2023/10/26 09:23:34;;;;;;;21.33;9.13;;;;;;;9.44;100.00;99549.06;5027192;28;20048;-70
2023/10/26 09:26:05;;;;;;;24.63;9.35;;;;;;;9.59;100.00;99553.13;5028988;28;20104;-71
2023/10/26 09:28:47;;;;;;;26.08;10.05;;;;;;;9.67;100.00;99555.16;5029910;28;20042;-70
2023/10/26 09:31:13;;;;;;;26.55;10.65;;;;;;;9.73;100.00;99554.59;5018540;28;20497;-70
2023/10/26 09:33:38;;;;;;;23.33;10.35;;;;;;;9.67;100.00;99549.75;5029483;28;20038;-71
2023/10/26 09:36:12;;;;;;;21.95;10.23;;;;;;;9.69;100.00;99551.31;5029677;28;20156;-71
2023/10/26 09:38:38;;;;;;;27.05;11.77;;;;;;;9.73;100.00;99554.59;5029568;28;20042;-70
2023/10/26 09:41:06;;;;;;;22.25;10.25;;;;;;;9.71;100.00;99556.63;5029741;28;20024;-70
2023/10/26 09:43:32;;;;;;;22.42;11.68;;;;;;;9.74;100.00;99550.88;5029687;28;20045;-70
2023/10/26 09:45:57;;;;;;;27.90;12.13;;;;;;;9.83;100.00;99546.50;5029613;28;20440;-70
2023/10/26 09:48:24;;;;;;;29.88;12.35;;;;;;;9.83;100.00;99547.34;5028187;28;20389;-70
2023/10/26 09:50:52;;;;;;;27.83;11.30;;;;;;;9.81;100.00;99548.50;5028529;28;20045;-70
2023/10/26 09:53:19;;;;;;;20.15;10.68;;;;;;;9.88;100.00;99546.94;5029379;28;20116;-70
2023/10/26 09:55:47;;;;;;;25.42;11.43;;;;;;;9.93;100.00;99555.53;5012256;28;20045;-69
2023/10/26 09:58:15;;;;;;;22.77;11.88;;;;;;;9.90;100.00;99547.66;5008318;28;20080;-70
2023/10/26 10:00:41;;;;;;;27.17;11.45;;;;;;;9.81;100.00;99541.22;5014563;28;20037;-73
2023/10/26 10:03:16;;;;;;;24.45;11.15;;;;;;;9.74;100.00;99540.03;5029208;28;20405;-70
2023/10/26 10:05:43;;;;;;;31.05;11.13;;;;;;;9.64;100.00;99528.28;5029126;28;20067;-72
2023/10/26 10:08:09;;;;;;;21.52;11.07;;;;;;;9.65;100.00;99532.72;5027833;28;20036;-70
2023/10/26 10:10:35;;;;;;;23.15;11.82;;;;;;;9.68;100.00;99540.59;5029255;28;20048;-73
2023/10/26 10:13:01;;;;;;;19.20;11.07;;;;;;;9.69;100.00;99536.88;5028900;28;20021;-70
2023/10/26 10:15:35;;;;;;;25.30;12.73;;;;;;;9.77;100.00;99541.63;5028853;28;20044;-70
2023/10/26 10:18:03;;;;;;;25.05;12.95;;;;;;;9.75;100.00;99530.06;5028591;28;20068;-70
2023/10/26 10:20:30;;;;;;;26.77;13.75;;;;;;;9.66;100.00;99527.16;5028113;28;20520;-70
2023/10/26 10:22:59;;;;;;;29.50;13.30;;;;;;;9.64;100.00;99512.84;5026893;28;20037;-70
2023/10/26 10:25:49;;;;;;;24.77;13.40;;;;;;;9.60;100.00;99508.69;5028964;28;20432;-71
2023/10/26 10:28:16;;;;;;;27.00;12.88;;;;;;;9.59;100.00;99511.53;5022987;28;20048;-70
2023/10/26 10:30:59;;;;;;;26.85;12.85;;;;;;;9.61;100.00;99501.44;5009530;28;20571;-70
2023/10/26 10:33:28;;;;;;;26.98;13.15;;;;;;;9.68;100.00;99505.28;5026814;28;20409;-70
2023/10/26 10:36:01;;;;;;;27.13;13.05;;;;;;;9.72;100.00;99504.00;5013362;28;20351;-71
2023/10/26 10:38:27;;;;;;;23.33;12.77;;;;;;;9.75;100.00;99494.75;5008068;28;20486;-70
2023/10/26 10:40:55;;;;;;;23.13;12.77;;;;;;;9.78;100.00;99505.31;5007868;28;20505;-69
2023/10/26 10:43:29;;;;;;;27.58;13.40;;;;;;;9.81;100.00;99497.75;5009932;28;20448;-70
2023/10/26 10:45:55;;;;;;;25.63;12.60;;;;;;;9.85;100.00;99493.75;5015946;28;20037;-71
2023/10/26 10:48:20;;;;;;;26.33;13.02;;;;;;;9.87;100.00;99496.31;5027501;28;20124;-69
2023/10/26 10:50:50;;;;;;;25.52;13.02;;;;;;;9.90;100.00;99491.47;5027896;28;20041;-70
2023/10/26 10:53:15;;;;;;;26.20;12.80;;;;;;;9.91;100.00;99486.91;5027672;28;20508;-70
2023/10/26 10:55:43;;;;;;;24.70;13.05;;;;;;;9.93;100.00;99484.88;5028543;28;20029;-70
2023/10/26 10:58:09;;;;;;;26.52;13.27;;;;;;;9.95;100.00;99478.31;5028219;28;20033;-70
2023/10/26 11:00:45;;;;;;;25.08;13.05;;;;;;;9.98;100.00;99474.47;5024239;28;20029;-70
2023/10/26 11:03:21;;;;;;;28.17;13.65;;;;;;;10.15;100.00;99465.63;5008403;28;20041;-69
2023/10/26 11:05:47;;;;;;;23.40;12.68;;;;;;;10.34;100.00;99464.78;5008608;28;20509;-70
2023/10/26 11:08:12;;;;;;;26.67;12.73;;;;;;;10.50;100.00;99475.09;5008630;28;20033;-71
2023/10/26 11:10:38;;;;;;;26.73;13.50;;;;;;;10.65;100.00;99470.06;5014704;28;20029;-70
2023/10/26 11:13:04;;;;;;;26.20;14.13;;;;;;;10.75;100.00;99470.91;5028300;28;20099;-71
2023/10/26 11:15:33;;;;;;;26.30;13.98;;;;;;;10.84;100.00;99466.44;5027786;28;20028;-70